createdAt,value
2022-09-23T00:02:07.289Z,97822.72
2022-09-23T00:04:33.866Z,97821.00
2022-09-23T00:07:00.346Z,97820.16
2022-09-23T00:09:26.891Z,97824.44
2022-09-23T00:11:53.463Z,97827.00
2022-09-23T00:14:21.423Z,97819.22
2022-09-23T00:16:47.961Z,97828.75
2022-09-23T00:19:14.504Z,97824.44
2022-09-23T00:21:41.010Z,97825.31
2022-09-23T00:24:08.091Z,97816.72
2022-09-23T00:26:34.641Z,97830.47
2022-09-23T00:29:01.140Z,97823.56
2022-09-23T00:31:27.823Z,97820.19
2022-09-23T00:34:00.868Z,97825.31
2022-09-23T00:36:28.097Z,97822.75
2022-09-23T00:38:54.897Z,97811.53
2022-09-23T00:41:21.804Z,97818.47
2022-09-23T00:43:53.519Z,97812.50
2022-09-23T00:46:24.123Z,97815.06
2022-09-23T00:48:54.294Z,97817.63
2022-09-23T00:51:21.360Z,97802.03
2022-09-23T00:53:48.396Z,97815.88
2022-09-23T00:56:15.051Z,97790.88
2022-09-23T00:58:42.995Z,97809.94
2022-09-23T01:01:09.584Z,97803.91
2022-09-23T01:03:36.153Z,97794.53
2022-09-23T01:06:02.678Z,97800.47
2022-09-23T01:08:29.328Z,97798.78
2022-09-23T01:11:15.395Z,97791.97
2022-09-23T01:13:51.090Z,97791.09
2022-09-23T01:16:44.381Z,97785.88
2022-09-23T01:19:48.610Z,97791.97
2022-09-23T01:22:44.366Z,97783.38
2022-09-23T01:25:31.541Z,97787.63
2022-09-23T01:28:09.509Z,97779.09
2022-09-23T01:30:37.946Z,97776.53
2022-09-23T01:33:21.513Z,97773.13
2022-09-23T01:35:50.573Z,97761.84
2022-09-23T01:38:26.856Z,97773.06
2022-09-23T01:40:59.829Z,97775.69
2022-09-23T01:43:48.079Z,97776.56
2022-09-23T01:46:21.036Z,97768.84
2022-09-23T01:48:47.492Z,97767.09
2022-09-23T01:51:18.370Z,97770.56
2022-09-23T01:53:52.088Z,97774.81
2022-09-23T01:56:30.634Z,97755.84
2022-09-23T01:59:06.027Z,97760.28
2022-09-23T02:01:40.162Z,97753.31
2022-09-23T02:04:09.929Z,97750.81
2022-09-23T02:06:39.943Z,97749.91
2022-09-23T02:09:09.747Z,97752.59
2022-09-23T02:11:36.347Z,97750.00
2022-09-23T02:14:15.545Z,97756.84
2022-09-23T02:16:47.533Z,97761.97
2022-09-23T02:19:47.965Z,97761.13
2022-09-23T02:22:20.108Z,97753.44
2022-09-23T02:24:46.743Z,97749.13
2022-09-23T02:27:32.514Z,97744.88
2022-09-23T02:30:19.072Z,97735.19
2022-09-23T02:33:07.129Z,97751.72
2022-09-23T02:35:37.047Z,97743.13
2022-09-23T02:38:38.188Z,97748.31
2022-09-23T02:41:14.960Z,97747.44
2022-09-23T02:43:59.898Z,97742.28
2022-09-23T02:46:26.549Z,97750.84
2022-09-23T02:48:56.814Z,97747.44
2022-09-23T02:51:28.748Z,97746.56
2022-09-23T02:53:56.338Z,97748.28
2022-09-23T02:56:22.839Z,97743.16
2022-09-23T02:58:49.916Z,97736.19
2022-09-23T03:01:31.396Z,97745.69
2022-09-23T03:04:32.385Z,97730.25
2022-09-23T03:07:14.110Z,97732.78
2022-09-23T03:09:51.187Z,97731.03
2022-09-23T03:12:40.109Z,97733.56
2022-09-23T03:15:23.160Z,97732.72
2022-09-23T03:18:08.212Z,97729.22
2022-09-23T03:20:36.351Z,97733.47
2022-09-23T03:23:07.718Z,97733.44
2022-09-23T03:25:36.464Z,97732.59
2022-09-23T03:28:02.942Z,97730.84
2022-09-23T03:30:29.773Z,97723.97
2022-09-23T03:32:56.268Z,97709.28
2022-09-23T03:35:24.115Z,97718.78
2022-09-23T03:37:56.787Z,97718.84
2022-09-23T03:40:43.430Z,97718.00
2022-09-23T03:43:12.630Z,97718.00
2022-09-23T03:45:39.320Z,97687.63
2022-09-23T03:48:07.154Z,97719.69
2022-09-23T03:50:35.387Z,97714.50
2022-09-23T03:53:01.970Z,97724.91
2022-09-23T03:55:28.451Z,97722.34
2022-09-23T03:57:55.636Z,97716.38
2022-09-23T04:00:22.149Z,97724.09
2022-09-23T04:02:49.801Z,97710.25
2022-09-23T04:05:16.578Z,97721.53
2022-09-23T04:07:43.095Z,97725.81
2022-09-23T04:10:10.019Z,97719.84
2022-09-23T04:12:36.912Z,97723.25
2022-09-23T04:15:03.648Z,97719.00
2022-09-23T04:17:30.175Z,97712.94
2022-09-23T04:19:56.693Z,97718.16
2022-09-23T04:22:23.234Z,97711.34
2022-09-23T04:24:49.911Z,97718.19
2022-09-23T04:27:16.416Z,97713.91
2022-09-23T04:29:42.927Z,97713.06
2022-09-23T04:32:09.647Z,97721.63
2022-09-23T04:34:36.116Z,97713.06
2022-09-23T04:37:02.637Z,97714.81
2022-09-23T04:39:29.099Z,97708.81
2022-09-23T04:41:55.592Z,97714.81
2022-09-23T04:44:22.119Z,97717.41
2022-09-23T04:46:49.320Z,97613.31
2022-09-23T04:49:16.164Z,97712.25
2022-09-23T04:51:43.572Z,97717.38
2022-09-23T04:54:11.475Z,97713.03
2022-09-23T04:56:38.038Z,97719.94
2022-09-23T04:59:04.556Z,97721.59
2022-09-23T05:01:32.057Z,97718.16
2022-09-23T05:04:02.399Z,97718.16
2022-09-23T05:06:29.816Z,97721.56
2022-09-23T05:08:57.227Z,97720.69
2022-09-23T05:11:24.061Z,97711.22
2022-09-23T05:13:53.226Z,97714.63
2022-09-23T05:16:20.098Z,97709.47
2022-09-23T05:18:46.924Z,97712.03
2022-09-23T05:21:14.940Z,97715.38
2022-09-23T05:23:41.601Z,97718.78
2022-09-23T05:26:09.896Z,97714.50
2022-09-23T05:28:37.598Z,97715.31
2022-09-23T05:31:19.603Z,97705.81
2022-09-23T05:33:53.624Z,97710.09
2022-09-23T05:36:21.363Z,97720.34
2022-09-23T05:38:49.799Z,97707.38
2022-09-23T05:41:16.611Z,97713.50
2022-09-23T05:43:43.324Z,97723.75
2022-09-23T05:46:19.944Z,97719.47
2022-09-23T05:48:47.225Z,97714.22
2022-09-23T05:51:18.414Z,97726.28
2022-09-23T05:53:45.407Z,97727.97
2022-09-23T05:56:16.528Z,97727.97
2022-09-23T05:58:43.123Z,97729.72
2022-09-23T06:01:14.369Z,97705.59
2022-09-23T06:03:41.025Z,97608.44
2022-09-23T06:06:07.910Z,97726.31
2022-09-23T06:08:34.601Z,97725.41
2022-09-23T06:11:07.674Z,97729.81
2022-09-23T06:13:35.852Z,97729.81
2022-09-23T06:16:03.050Z,97734.97
2022-09-23T06:18:29.588Z,97726.44
2022-09-23T06:20:56.088Z,97720.31
2022-09-23T06:23:25.962Z,97738.44
2022-09-23T06:25:53.111Z,97731.59
2022-09-23T06:28:19.974Z,97723.00
2022-09-23T06:30:46.475Z,97735.06
2022-09-23T06:33:12.987Z,97733.34
2022-09-23T06:35:39.601Z,97727.31
2022-09-23T06:38:06.333Z,97718.66
2022-09-23T06:40:32.962Z,97712.63
2022-09-23T06:43:00.245Z,97709.28
2022-09-23T06:45:27.209Z,97717.78
2022-09-23T06:47:56.337Z,97722.06
2022-09-23T06:50:24.111Z,97722.88
2022-09-23T06:52:55.915Z,97719.44
2022-09-23T06:55:28.230Z,97726.28
2022-09-23T06:57:55.364Z,97725.41
2022-09-23T07:00:21.866Z,97724.56
2022-09-23T07:02:48.954Z,97724.56
2022-09-23T07:05:18.325Z,97708.16
2022-09-23T07:07:44.999Z,97726.25
2022-09-23T07:10:11.656Z,97724.56
2022-09-23T07:12:38.137Z,97710.75
2022-09-23T07:15:04.857Z,97718.47
2022-09-23T07:17:31.398Z,97730.53
2022-09-23T07:19:58.456Z,97729.72
2022-09-23T07:22:25.712Z,97743.41
2022-09-23T07:24:55.894Z,97735.72
2022-09-23T07:27:26.056Z,97734.03
2022-09-23T07:29:52.976Z,97735.66
2022-09-23T07:32:19.850Z,97732.34
2022-09-23T07:34:47.235Z,97733.19
2022-09-23T07:37:14.734Z,97732.38
2022-09-23T07:39:41.884Z,97722.88
2022-09-23T07:42:08.420Z,97728.97
2022-09-23T07:44:35.030Z,97734.97
2022-09-23T07:47:01.553Z,97736.69
2022-09-23T07:49:28.064Z,97741.84
2022-09-23T07:51:54.556Z,97741.00
2022-09-23T07:54:21.472Z,97740.19
2022-09-23T07:56:48.042Z,97733.19
2022-09-23T07:59:17.642Z,97735.81
2022-09-23T08:01:46.297Z,97734.22
2022-09-23T08:04:17.788Z,97744.47
2022-09-23T08:06:55.185Z,97722.16
2022-09-23T08:09:23.824Z,97729.97
2022-09-23T08:11:50.883Z,97723.09
2022-09-23T08:14:18.435Z,97728.25
2022-09-23T08:16:45.617Z,97720.41
2022-09-23T08:19:12.531Z,97741.06
2022-09-23T08:21:39.568Z,97731.56
2022-09-23T08:24:17.583Z,97729.91
2022-09-23T08:26:44.816Z,97724.69
2022-09-23T08:29:17.972Z,97725.44
2022-09-23T08:31:44.480Z,97720.47
2022-09-23T08:34:11.175Z,97726.44
2022-09-23T08:36:37.851Z,97715.19
2022-09-23T08:39:04.843Z,97724.69
2022-09-23T08:41:31.208Z,97723.00
2022-09-23T08:43:59.583Z,97715.19
2022-09-23T08:46:47.921Z,97722.16
2022-09-23T08:49:20.029Z,97717.72
2022-09-23T08:51:46.954Z,97696.22
2022-09-23T08:54:13.541Z,97716.19
2022-09-23T08:56:40.206Z,97704.13
2022-09-23T08:59:17.925Z,97715.31
2022-09-23T09:01:52.463Z,97706.72
2022-09-23T09:04:35.221Z,97698.06
2022-09-23T09:07:34.768Z,97714.50
2022-09-23T09:10:15.052Z,97715.34
2022-09-23T09:12:54.605Z,97713.66
2022-09-23T09:15:26.611Z,97708.53
2022-09-23T09:17:56.595Z,97705.94
2022-09-23T09:20:32.300Z,97701.69
2022-09-23T09:23:00.571Z,97699.97
2022-09-23T09:25:46.379Z,97688.88
2022-09-23T09:28:17.431Z,97685.44
2022-09-23T09:30:48.300Z,97684.59
2022-09-23T09:33:17.388Z,97675.94
2022-09-23T09:36:08.803Z,97686.28
2022-09-23T09:38:36.307Z,97678.66
2022-09-23T09:41:12.020Z,97671.69
2022-09-23T09:43:44.031Z,97674.34
2022-09-23T09:46:22.877Z,97672.66
2022-09-23T09:48:59.746Z,97670.94
2022-09-23T09:51:27.750Z,97658.13
2022-09-23T09:53:55.732Z,97659.84
2022-09-23T09:56:31.040Z,97654.72
2022-09-23T09:59:02.088Z,97650.34
2022-09-23T10:01:33.031Z,97647.78
2022-09-23T10:04:01.539Z,97649.47
2022-09-23T10:06:29.737Z,97649.56
2022-09-23T10:09:02.106Z,97654.72
2022-09-23T10:11:29.470Z,97649.47
2022-09-23T10:14:17.566Z,97655.56
2022-09-23T10:16:44.724Z,97654.69
2022-09-23T10:19:16.130Z,97646.09
2022-09-23T10:21:42.692Z,97646.91
2022-09-23T10:24:20.740Z,97641.81
2022-09-23T10:26:59.457Z,97639.16
2022-09-23T10:29:32.499Z,97644.38
2022-09-23T10:32:28.183Z,97641.78
2022-09-23T10:34:59.008Z,97634.91
2022-09-23T10:37:46.684Z,97629.78
2022-09-23T10:40:48.454Z,97638.34
2022-09-23T10:43:48.792Z,97625.50
2022-09-23T10:46:48.503Z,97629.81
2022-09-23T10:49:55.332Z,97628.94
2022-09-23T10:52:40.029Z,97616.94
2022-09-23T10:55:43.187Z,97617.84
2022-09-23T10:58:19.329Z,97606.72
2022-09-23T11:00:55.116Z,97618.72
2022-09-23T11:03:21.517Z,97609.34
2022-09-23T11:06:11.221Z,97605.94
2022-09-23T11:08:57.052Z,97605.03
2022-09-23T11:11:23.445Z,97596.53
2022-09-23T11:14:04.094Z,97602.50
2022-09-23T11:16:38.990Z,97598.25
2022-09-23T11:19:45.828Z,97600.88
2022-09-23T11:22:15.963Z,97588.03
2022-09-23T11:24:58.154Z,97586.34
2022-09-23T11:27:50.864Z,97580.34
2022-09-23T11:30:20.049Z,97576.94
2022-09-23T11:35:39.040Z,97580.41
2022-09-23T11:38:18.781Z,97568.38
2022-09-23T11:40:46.515Z,97564.16
2022-09-23T11:43:23.326Z,97560.69
2022-09-23T11:46:28.624Z,97561.59
2022-09-23T11:49:32.934Z,97561.56
2022-09-23T11:52:05.270Z,97559.00
2022-09-23T11:54:45.279Z,97553.84
2022-09-23T11:57:28.392Z,97555.56
2022-09-23T12:00:00.318Z,97548.66
2022-09-23T12:03:06.420Z,97535.00
2022-09-23T12:05:36.152Z,97532.41
2022-09-23T12:08:17.977Z,97528.97
2022-09-23T12:10:56.149Z,97525.50
2022-09-23T12:13:40.594Z,97522.94
2022-09-23T12:16:25.874Z,97522.94
2022-09-23T12:19:04.529Z,97500.47
2022-09-23T12:21:49.870Z,97523.78
2022-09-23T12:24:41.816Z,97521.22
2022-09-23T12:27:10.946Z,97500.47
2022-09-23T12:29:37.508Z,97518.66
2022-09-23T12:32:10.067Z,97508.31
2022-09-23T12:34:48.835Z,97500.59
2022-09-23T12:37:25.515Z,97512.69
2022-09-23T12:39:52.055Z,97505.88
2022-09-23T12:42:19.728Z,97511.00
2022-09-23T12:44:47.578Z,97495.50
2022-09-23T12:47:21.061Z,97509.31
2022-09-23T12:49:48.182Z,97502.47
2022-09-23T12:52:17.704Z,97501.63
2022-09-23T12:54:45.602Z,97499.91
2022-09-23T12:57:31.584Z,97494.78
2022-09-23T12:59:58.976Z,97481.94
2022-09-23T13:02:36.504Z,97480.19
2022-09-23T13:05:27.833Z,97486.31
2022-09-23T13:08:03.423Z,97486.31
2022-09-23T13:10:32.724Z,97480.28
2022-09-23T13:12:59.881Z,97484.53
2022-09-23T13:15:28.830Z,97468.34
2022-09-23T13:18:50.081Z,97467.50
2022-09-23T13:21:18.752Z,97469.22
2022-09-23T13:24:13.136Z,97464.97
2022-09-23T13:26:43.500Z,97465.84
2022-09-23T13:29:11.305Z,97454.72
2022-09-23T13:31:37.923Z,97439.09
2022-09-23T13:34:05.521Z,97448.66
2022-09-23T13:36:33.455Z,97452.97
2022-09-23T13:39:26.516Z,97454.66
2022-09-23T13:41:54.118Z,97435.66
2022-09-23T13:44:20.629Z,97446.91
2022-09-23T13:46:56.299Z,97445.97
2022-09-23T13:49:26.849Z,97444.31
2022-09-23T13:51:54.115Z,97404.59
2022-09-23T13:54:36.208Z,97436.59
2022-09-23T13:57:02.805Z,97438.19
2022-09-23T13:59:37.437Z,97441.72
2022-09-23T14:02:13.702Z,97440.84
2022-09-23T14:04:40.291Z,97433.16
2022-09-23T14:07:07.007Z,97428.88
2022-09-23T14:09:33.515Z,97425.44
2022-09-23T14:12:00.273Z,97431.44
2022-09-23T14:14:27.092Z,97428.88
2022-09-23T14:16:53.805Z,97405.53
2022-09-23T14:19:21.553Z,97413.38
2022-09-23T14:21:49.268Z,97425.47
2022-09-23T14:24:22.596Z,97417.78
2022-09-23T14:27:08.176Z,97415.16
2022-09-23T14:29:39.560Z,97420.34
2022-09-23T14:32:07.301Z,97414.41
2022-09-23T14:34:44.439Z,97406.59
2022-09-23T14:37:49.803Z,97397.97
2022-09-23T14:40:20.128Z,97415.25
2022-09-23T14:42:52.106Z,97407.56
2022-09-23T14:45:22.944Z,97395.50
2022-09-23T14:47:51.386Z,97388.66
2022-09-23T14:50:43.657Z,97380.00
2022-09-23T14:53:19.397Z,97394.72
2022-09-23T14:55:46.822Z,97377.47
2022-09-23T14:58:17.063Z,97394.75
2022-09-23T15:00:52.275Z,97387.94
2022-09-23T15:03:20.973Z,97383.63
2022-09-23T15:05:51.154Z,97382.78
2022-09-23T15:08:19.334Z,97359.50
2022-09-23T15:10:46.172Z,97287.75
2022-09-23T15:13:15.488Z,97371.69
2022-09-23T15:15:42.288Z,97372.50
2022-09-23T15:18:30.459Z,97369.97
2022-09-23T15:21:14.657Z,97363.91
2022-09-23T15:23:41.458Z,97370.81
2022-09-23T15:26:18.513Z,97363.94
2022-09-23T15:28:45.175Z,97369.00
2022-09-23T15:31:16.028Z,97369.06
2022-09-23T15:33:47.526Z,97359.66
2022-09-23T15:36:25.787Z,97359.53
2022-09-23T15:38:52.279Z,97364.72
2022-09-23T15:41:18.958Z,97365.59
2022-09-23T15:43:46.676Z,97370.75
2022-09-23T15:46:26.448Z,97363.88
2022-09-23T15:49:01.131Z,97355.28
2022-09-23T15:51:27.810Z,97361.25
2022-09-23T15:53:58.160Z,97353.56
2022-09-23T15:56:24.750Z,97348.38
2022-09-23T15:58:51.269Z,97349.34
2022-09-23T16:01:30.532Z,97350.22
2022-09-23T16:03:57.203Z,97345.00
2022-09-23T16:06:24.334Z,97333.81
2022-09-23T16:08:52.141Z,97357.06
2022-09-23T16:11:20.242Z,97354.50
2022-09-23T16:13:46.731Z,97347.69
2022-09-23T16:16:13.357Z,97353.66
2022-09-23T16:18:42.268Z,97350.28
2022-09-23T16:21:11.532Z,97334.75
2022-09-23T16:23:38.814Z,97347.69
2022-09-23T16:26:24.401Z,97345.97
2022-09-23T16:28:52.116Z,97349.41
2022-09-23T16:31:18.731Z,97346.84
2022-09-23T16:33:45.955Z,97338.22
2022-09-23T16:36:24.071Z,97336.59
2022-09-23T16:38:50.572Z,97348.56
2022-09-23T16:41:17.159Z,97349.44
2022-09-23T16:43:43.662Z,97341.75
2022-09-23T16:46:12.142Z,97312.31
2022-09-23T16:48:40.482Z,97341.75
2022-09-23T16:51:08.105Z,97342.63
2022-09-23T16:53:39.204Z,97342.63
2022-09-23T16:56:09.430Z,97236.25
2022-09-23T16:58:36.702Z,97347.75
2022-09-23T17:01:21.605Z,97340.81
2022-09-23T17:03:48.215Z,97346.03
2022-09-23T17:06:14.987Z,97314.06
2022-09-23T17:08:42.256Z,97351.13
2022-09-23T17:11:10.619Z,97338.22
2022-09-23T17:13:37.237Z,97330.44
2022-09-23T17:16:03.797Z,97342.56
2022-09-23T17:18:30.310Z,97340.81
2022-09-23T17:21:04.089Z,97338.19
2022-09-23T17:23:31.611Z,97337.31
2022-09-23T17:25:59.370Z,97345.09
2022-09-23T17:28:25.915Z,97347.66
2022-09-23T17:30:57.775Z,97354.50
2022-09-23T17:33:25.177Z,97350.22
2022-09-23T17:35:51.979Z,97343.25
2022-09-23T17:38:18.461Z,97319.16
2022-09-23T17:40:54.787Z,97347.66
2022-09-23T17:43:25.017Z,97339.81
2022-09-23T17:45:52.437Z,97356.16
2022-09-23T17:48:19.587Z,97355.34
2022-09-23T17:50:58.943Z,97354.47
2022-09-23T17:53:26.066Z,97352.78
2022-09-23T17:56:00.047Z,97344.13
2022-09-23T17:58:30.748Z,97350.19
2022-09-23T18:00:57.395Z,97354.50
2022-09-23T18:03:24.666Z,97354.50
2022-09-23T18:05:51.308Z,97351.06
2022-09-23T18:08:17.802Z,97348.41
2022-09-23T18:10:44.341Z,97351.97
2022-09-23T18:13:10.867Z,97356.22
2022-09-23T18:15:37.949Z,97346.72
2022-09-23T18:18:05.026Z,97352.84
2022-09-23T18:20:31.563Z,97354.53
2022-09-23T18:22:58.296Z,97356.25
2022-09-23T18:25:38.738Z,97346.84
2022-09-23T18:28:06.286Z,97352.00
2022-09-23T18:30:33.506Z,97356.28
2022-09-23T18:33:00.082Z,97345.13
2022-09-23T18:35:26.731Z,97351.13
2022-09-23T18:37:53.238Z,97357.16
2022-09-23T18:40:19.835Z,97349.44
2022-09-23T18:42:46.953Z,97341.75
2022-09-23T18:45:13.477Z,97332.25
2022-09-23T18:47:58.693Z,97330.53
2022-09-23T18:50:40.348Z,97339.16
2022-09-23T18:53:07.516Z,97335.72
2022-09-23T18:55:37.882Z,97327.88
2022-09-23T18:58:04.847Z,97343.41
2022-09-23T19:00:31.367Z,97352.84
2022-09-23T19:02:57.880Z,97345.94
2022-09-23T19:05:24.427Z,97345.13
2022-09-23T19:07:51.263Z,97351.06
2022-09-23T19:10:19.100Z,97347.66
2022-09-23T19:12:46.624Z,97346.78
2022-09-23T19:15:14.094Z,97339.00
2022-09-23T19:17:40.569Z,97346.78
2022-09-23T19:20:07.691Z,97344.22
2022-09-23T19:22:34.432Z,97348.47
2022-09-23T19:25:00.910Z,97351.91
2022-09-23T19:27:27.408Z,97352.78
2022-09-23T19:29:53.980Z,97357.03
2022-09-23T19:32:21.099Z,97357.91
2022-09-23T19:34:47.856Z,97353.63
2022-09-23T19:37:14.495Z,97350.25
2022-09-23T19:39:41.129Z,97354.50
2022-09-23T19:42:07.659Z,97355.34
2022-09-23T19:44:37.781Z,97324.22
2022-09-23T19:47:04.429Z,97355.34
2022-09-23T19:49:31.075Z,97351.03
2022-09-23T19:51:57.578Z,97354.44
2022-09-23T19:54:26.524Z,97348.41
2022-09-23T19:56:53.013Z,97342.50
2022-09-23T19:59:19.705Z,97335.56
2022-09-23T20:01:47.525Z,97335.59
2022-09-23T20:04:15.578Z,97344.16
2022-09-23T20:06:42.159Z,97339.91
2022-09-23T20:09:08.683Z,97339.91
2022-09-23T20:11:35.224Z,97342.47
2022-09-23T20:14:04.354Z,97332.16
2022-09-23T20:16:32.991Z,97334.63
2022-09-23T20:19:00.246Z,97339.03
2022-09-23T20:21:27.079Z,97345.84
2022-09-23T20:23:53.538Z,97334.75
2022-09-23T20:26:38.685Z,97332.97
2022-09-23T20:29:05.164Z,97324.41
2022-09-23T20:31:32.237Z,97327.03
2022-09-23T20:33:58.865Z,97320.97
2022-09-23T20:36:29.094Z,97315.91
2022-09-23T20:38:56.347Z,97318.47
2022-09-23T20:41:22.842Z,97318.44
2022-09-23T20:43:55.776Z,97312.47
2022-09-23T20:46:23.406Z,97299.56
2022-09-23T20:48:50.103Z,97311.63
2022-09-23T20:51:16.614Z,97310.75
2022-09-23T20:53:43.323Z,97315.00
2022-09-23T20:56:09.796Z,97306.47
2022-09-23T20:58:36.550Z,97315.84
2022-09-23T21:01:05.253Z,97314.16
2022-09-23T21:03:32.537Z,97303.78
2022-09-23T21:06:03.511Z,97312.41
2022-09-23T21:08:33.719Z,97309.00
2022-09-23T21:11:04.240Z,97307.28
2022-09-23T21:13:31.560Z,97299.56
2022-09-23T21:16:10.074Z,97301.31
2022-09-23T21:18:37.308Z,97302.13
2022-09-23T21:21:04.185Z,97277.09
2022-09-23T21:23:32.212Z,97305.56
2022-09-23T21:26:08.629Z,97300.41
2022-09-23T21:28:36.604Z,97302.97
2022-09-23T21:31:05.337Z,97313.25
2022-09-23T21:33:32.033Z,97309.81
2022-09-23T21:36:03.407Z,97311.53
2022-09-23T21:38:36.848Z,97307.22
2022-09-23T21:41:05.356Z,97314.91
2022-09-23T21:43:33.497Z,97289.06
2022-09-23T21:46:07.550Z,97302.06
2022-09-23T21:48:38.001Z,97303.81
2022-09-23T21:51:06.430Z,97301.25
2022-09-23T21:53:33.643Z,97296.94
2022-09-23T21:56:01.719Z,97287.44
2022-09-23T21:58:29.136Z,97294.38
2022-09-23T22:00:55.854Z,97290.97
2022-09-23T22:03:22.482Z,97273.78
2022-09-23T22:05:48.948Z,97280.69
2022-09-23T22:08:15.437Z,97274.69
2022-09-23T22:10:41.951Z,97284.97
2022-09-23T22:13:12.684Z,97289.25
2022-09-23T22:15:39.592Z,97283.28
2022-09-23T22:18:06.284Z,97279.81
2022-09-23T22:20:34.176Z,97280.69
2022-09-23T22:23:00.683Z,97293.53
2022-09-23T22:25:28.641Z,97289.22
2022-09-23T22:28:13.649Z,97288.38
2022-09-23T22:30:58.407Z,97286.66
2022-09-23T22:33:24.982Z,97289.22
2022-09-23T22:35:52.101Z,97284.94
2022-09-23T22:38:19.125Z,97274.66
2022-09-23T22:40:45.713Z,97270.38
2022-09-23T22:43:12.277Z,97273.78
2022-09-23T22:45:39.586Z,97272.97
2022-09-23T22:48:06.116Z,97284.94
2022-09-23T22:50:32.604Z,97288.38
2022-09-23T22:52:59.601Z,97279.81
2022-09-23T22:55:26.167Z,97278.94
2022-09-23T22:57:52.646Z,97272.97
2022-09-23T23:00:19.401Z,97272.09
2022-09-23T23:02:45.942Z,97268.63
2022-09-23T23:05:14.477Z,97272.09
2022-09-23T23:07:41.764Z,97267.81
2022-09-23T23:10:10.227Z,97272.09
2022-09-23T23:12:37.081Z,97272.09
2022-09-23T23:15:03.816Z,97278.09
2022-09-23T23:17:30.318Z,97260.88
2022-09-23T23:19:57.888Z,97264.34
2022-09-23T23:22:27.251Z,97272.06
2022-09-23T23:24:54.637Z,97265.19
2022-09-23T23:27:21.148Z,97268.63
2022-09-23T23:29:47.851Z,97263.50
2022-09-23T23:32:15.312Z,97265.25
2022-09-23T23:34:42.059Z,97264.38
2022-09-23T23:37:08.614Z,97263.53
2022-09-23T23:39:35.165Z,97269.50
2022-09-23T23:42:01.641Z,97262.69
2022-09-23T23:44:31.176Z,97270.38
2022-09-23T23:46:57.776Z,97254.91
2022-09-23T23:49:24.291Z,97266.06
2022-09-23T23:51:50.853Z,97256.69
2022-09-23T23:54:17.357Z,97264.38
2022-09-23T23:56:43.914Z,97247.22
2022-09-23T23:59:10.441Z,97236.88
